| Temperature (°F) | Max | Average | Min |
|---|---|---|---|
| Max Temperature | 102 | 90.06 | 75 |
| Avg Temperature | 86.58 | 77.89 | 67.5 |
| Min Temperature | 77 | 68.22 | 62 |
| Precipitation (in) | Max | Average | Min | Sum |
|---|---|---|---|---|
| Precipitation | 0.9 | 0.07 | 0 | 2.26 |
| Dew Point (°F) | Max | Average | Min |
|---|---|---|---|
| Dew Point | 72.59 | 66.14 | 54.58 |
| Wind (mph) | Max | Average | Min |
|---|---|---|---|
| Wind | 35 | 15.56 | 7 |
| Gust Wind | 48 | 24.4 | 16 |
| Sea Level Pressure (in) | Max | Average | Min |
|---|---|---|---|
| Sea Level Pressure | 28.76 | 28.59 | 28.41 |
| Date | Temp High/Low | Dew Pt High/Low | Humidity | Wind | Max Wind | Wind Gust | Pressure | Precip. | Condition |
|---|---|---|---|---|---|---|---|---|---|
| 7/1/2026 | 85 °F / 66 °F | 70 °F / 60 °F | 80 % | 35 mph | - | 28.43 in | 0.9 in | ||
| 7/2/2026 | 89 °F / 67 °F | 76 °F / 60 °F | 81 % | 15 mph | - | 28.5 in | 0 in | ||
| 7/3/2026 | 84 °F / 66 °F | 68 °F / 59 °F | 72 % | 26 mph | - | 28.57 in | 0 in | ||
| 7/4/2026 | 88 °F / 64 °F | 71 °F / 64 °F | 77 % | 7 mph | - | 28.6 in | 0 in | ||
| 7/5/2026 | 90 °F / 66 °F | 71 °F / 63 °F | 69 % | 12 mph | - | 28.62 in | 0 in | ||
| 7/6/2026 | 94 °F / 71 °F | 71 °F / 68 °F | 70 % | 16 mph | - | 28.6 in | 0 in | ||
| 7/7/2026 | 94 °F / 71 °F | 71 °F / 65 °F | 65 % | 22 mph | - | 28.61 in | 0 in | ||
| 7/8/2026 | 81 °F / 68 °F | 71 °F / 66 °F | 79 % | 15 mph | - | 28.56 in | 0 in | ||
| 7/9/2026 | 85 °F / 63 °F | 68 °F / 62 °F | 75 % | 8 mph | - | 28.55 in | 0 in | ||
| 7/10/2026 | 90 °F / 68 °F | 70 °F / 62 °F | 69 % | 13 mph | - | 28.55 in | 0 in | ||
| 7/11/2026 | 93 °F / 69 °F | 69 °F / 64 °F | 63 % | 14 mph | - | 28.65 in | 0 in | ||
| 7/12/2026 | 95 °F / 68 °F | 70 °F / 62 °F | 62 % | 15 mph | - | 28.74 in | 0 in | ||
| 7/13/2026 | 94 °F / 69 °F | 70 °F / 60 °F | 60 % | 20 mph | - | 28.75 in | 0 in | ||
| 7/14/2026 | 95 °F / 63 °F | 68 °F / 60 °F | 59 % | 16 mph | - | 28.75 in | 0 in | ||
| 7/15/2026 | 92 °F / 65 °F | 67 °F / 60 °F | 63 % | 12 mph | - | 28.71 in | 0 in | ||
| 7/16/2026 | 94 °F / 68 °F | 69 °F / 63 °F | 62 % | 14 mph | - | 28.63 in | 0 in | ||
| 7/17/2026 | 100 °F / 69 °F | 74 °F / 57 °F | 59 % | 10 mph | - | 28.55 in | 0 in | ||
| 7/18/2026 | 90 °F / 69 °F | 74 °F / 54 °F | 60 % | 14 mph | - | 28.62 in | 0 in | ||
| 7/19/2026 | 94 °F / 65 °F | 72 °F / 62 °F | 67 % | 17 mph | - | 28.55 in | 0 in | ||
| 7/20/2026 | 94 °F / 72 °F | 74 °F / 53 °F | 54 % | 16 mph | - | 28.43 in | 0 in | ||
| 7/21/2026 | 80 °F / 63 °F | 61 °F / 51 °F | 61 % | 15 mph | - | 28.68 in | 0 in | ||
| 7/22/2026 | 73 °F / 62 °F | 60 °F / 52 °F | 68 % | 8 mph | - | 28.77 in | 0 in | ||
| 7/23/2026 | 75 °F / 63 °F | 65 °F / 54 °F | 80 % | 16 mph | - | 28.71 in | 0 in | ||
| 7/24/2026 | 81 °F / 66 °F | 70 °F / 65 °F | 87 % | 17 mph | - | 28.57 in | 0 in | ||
| 7/25/2026 | 102 °F / 70 °F | 78 °F / 67 °F | 74 % | 17 mph | - | 28.47 in | 0.56 in | ||
| 7/26/2026 | 100 °F / 73 °F | 81 °F / 63 °F | 68 % | 15 mph | - | 28.43 in | 0 in | ||
| 7/27/2026 | 96 °F / 76 °F | 80 °F / 54 °F | 74 % | 14 mph | - | 28.44 in | 0 in | ||
| 7/28/2026 | 94 °F / 73 °F | 71 °F / 64 °F | 65 % | 9 mph | - | 28.53 in | 0 in | ||
| 7/29/2026 | 94 °F / 73 °F | 74 °F / 68 °F | 71 % | 16 mph | - | 28.54 in | 0 in | ||
| 7/30/2026 | 79 °F / 69 °F | 74 °F / 68 °F | 91 % | 17 mph | - | 28.52 in | 0.56 in | ||
| 7/31/2026 | 80 °F / 66 °F | 70 °F / 62 °F | 85 % | 21 mph | - | 28.55 in | 0.24 in |